Ana Sayfa
METAR-TAF:

METAR-TAF

Havaalanları :

Şırnak Şerafettin Elçi Havalimanı

Şırnak, Türkiye

Enlem: 37-21-50N, Boylam: 42-03-36E, yükseklik: 621 m

Güncel hava durumu gözlemi

Rapor saat 14:50 UTC de 4 saat ve 22 dakika önce yapıldı.
Rüzgar doğu/güneydoğudan 5 kt
Sıcaklık 27°C
Nem 26%
Basınç 1016 hPa
Görüş mesafesi 10 km veya daha fazla
3500 ft yükseklikte parçalı bulutlu

METAR: LTCV 181450Z 11005KT 9999 SCT035 27/06 Q1016

Saat: 22:12 (19:12 UTC)

Tahmin

Rapor saat 13:40 UTC de 5 saat ve 32 dakika önce yapıldı.
Ayın 18'si saat 15 UTC'den ayın 18'si saat 24 UTC'ye kadar geçerli Tahmin
Rüzgar kuzeydoğudan 9 kt
Görüş mesafesi 10 km veya daha fazla
4000 ft yükseklikte az bulutlu
10000 ft yükseklikte parçalı çok bulutlu

TAF: LTCV 181340Z 1815/1824 04009KT 9999 FEW040 BKN100

4.000'den fazla havaalanı için hava durumu gözlemleri ve tahminleri (METAR ve TAF raporları).

Kullanılabilir istasyonlar harita üzerinde sarı ve kırmızı noktalarla gösterilir.

İstasyonun adını görmek için fareyi noktanın üzerinde gezdirin.

Sonrasında hava gözlem ve tahminlerini görmek için tıklayın.

Haritayı değiştirmek için: yaklaştırmak için siyah artı işaretli yeşil düğmeye ve uzaklaştırmak için de eksi işaretli düğmeye hızla tıklayın; bitişik haritalar için yeşil okları kullanın.


METAR-TAF: